sensor_id;sensor_type;location;lat;lon;timestamp;temperature;humidity
5779;DHT22;2916;49.798;10.022;2023-04-06T00:01:02;1.10;1.00
5779;DHT22;2916;49.798;10.022;2023-04-06T00:03:30;1.00;1.00
5779;DHT22;2916;49.798;10.022;2023-04-06T00:05:58;1.00;1.00
5779;DHT22;2916;49.798;10.022;2023-04-06T00:08:26;0.90;1.00
5779;DHT22;2916;49.798;10.022;2023-04-06T00:10:54;0.90;1.00
5779;DHT22;2916;49.798;10.022;2023-04-06T00:13:21;0.80;1.00
5779;DHT22;2916;49.798;10.022;2023-04-06T00:15:48;0.80;1.00
5779;DHT22;2916;49.798;10.022;2023-04-06T00:18:16;0.80;1.00
5779;DHT22;2916;49.798;10.022;2023-04-06T00:20:43;0.80;1.00
5779;DHT22;2916;49.798;10.022;2023-04-06T00:23:12;0.70;1.00
5779;DHT22;2916;49.798;10.022;2023-04-06T00:25:39;0.70;1.00
5779;DHT22;2916;49.798;10.022;2023-04-06T00:28:06;0.70;1.00
5779;DHT22;2916;49.798;10.022;2023-04-06T00:30:34;0.70;1.00
5779;DHT22;2916;49.798;10.022;2023-04-06T00:33:01;0.70;1.00
5779;DHT22;2916;49.798;10.022;2023-04-06T00:35:28;0.60;1.00
5779;DHT22;2916;49.798;10.022;2023-04-06T00:37:56;0.60;1.00
5779;DHT22;2916;49.798;10.022;2023-04-06T00:40:24;0.70;1.00
5779;DHT22;2916;49.798;10.022;2023-04-06T00:42:54;0.60;4.80
5779;DHT22;2916;49.798;10.022;2023-04-06T00:45:21;0.60;4.80
5779;DHT22;2916;49.798;10.022;2023-04-06T00:47:49;0.50;3.10
5779;DHT22;2916;49.798;10.022;2023-04-06T00:50:17;0.50;3.20
5779;DHT22;2916;49.798;10.022;2023-04-06T00:52:44;0.50;3.90
5779;DHT22;2916;49.798;10.022;2023-04-06T00:55:12;0.50;2.60
5779;DHT22;2916;49.798;10.022;2023-04-06T00:57:40;0.50;1.20
5779;DHT22;2916;49.798;10.022;2023-04-06T01:00:08;0.50;2.90
5779;DHT22;2916;49.798;10.022;2023-04-06T01:02:37;0.50;2.60
5779;DHT22;2916;49.798;10.022;2023-04-06T01:05:05;0.40;1.10
5779;DHT22;2916;49.798;10.022;2023-04-06T01:07:33;0.40;2.70
5779;DHT22;2916;49.798;10.022;2023-04-06T01:10:01;0.40;2.50
5779;DHT22;2916;49.798;10.022;2023-04-06T01:12:28;0.40;3.70
5779;DHT22;2916;49.798;10.022;2023-04-06T01:14:57;0.30;3.20
5779;DHT22;2916;49.798;10.022;2023-04-06T01:17:25;0.30;4.90
5779;DHT22;2916;49.798;10.022;2023-04-06T01:19:54;0.30;2.90
5779;DHT22;2916;49.798;10.022;2023-04-06T01:22:24;0.30;2.60
5779;DHT22;2916;49.798;10.022;2023-04-06T01:24:51;0.20;3.10
5779;DHT22;2916;49.798;10.022;2023-04-06T01:27:18;0.20;5.60
5779;DHT22;2916;49.798;10.022;2023-04-06T01:29:46;0.10;4.00
5779;DHT22;2916;49.798;10.022;2023-04-06T01:32:13;0.10;3.00
5779;DHT22;2916;49.798;10.022;2023-04-06T01:34:40;0.20;3.50
5779;DHT22;2916;49.798;10.022;2023-04-06T01:37:08;0.20;3.50
5779;DHT22;2916;49.798;10.022;2023-04-06T01:39:37;0.10;4.20
5779;DHT22;2916;49.798;10.022;2023-04-06T01:42:04;0.10;6.00
5779;DHT22;2916;49.798;10.022;2023-04-06T01:44:32;0.10;7.10
5779;DHT22;2916;49.798;10.022;2023-04-06T01:46:59;0.10;4.50
5779;DHT22;2916;49.798;10.022;2023-04-06T01:49:26;0.10;3.50
5779;DHT22;2916;49.798;10.022;2023-04-06T01:51:53;0.10;3.00
5779;DHT22;2916;49.798;10.022;2023-04-06T01:54:21;0.00;3.40
5779;DHT22;2916;49.798;10.022;2023-04-06T01:56:49;0.00;4.30
5779;DHT22;2916;49.798;10.022;2023-04-06T01:59:18;-0.10;6.20
5779;DHT22;2916;49.798;10.022;2023-04-06T02:01:45;-0.10;6.40
5779;DHT22;2916;49.798;10.022;2023-04-06T02:04:12;-0.10;6.90
5779;DHT22;2916;49.798;10.022;2023-04-06T02:06:40;-0.10;8.10
5779;DHT22;2916;49.798;10.022;2023-04-06T02:09:07;-0.10;7.80
5779;DHT22;2916;49.798;10.022;2023-04-06T02:11:35;-0.10;7.60
5779;DHT22;2916;49.798;10.022;2023-04-06T02:14:03;-0.10;6.60
5779;DHT22;2916;49.798;10.022;2023-04-06T02:16:30;-0.10;7.50
5779;DHT22;2916;49.798;10.022;2023-04-06T02:18:58;-0.20;8.70
5779;DHT22;2916;49.798;10.022;2023-04-06T02:21:25;-0.20;9.00
5779;DHT22;2916;49.798;10.022;2023-04-06T02:23:52;-0.30;8.80
5779;DHT22;2916;49.798;10.022;2023-04-06T02:26:19;-0.20;11.00
5779;DHT22;2916;49.798;10.022;2023-04-06T02:28:47;-0.20;14.00
5779;DHT22;2916;49.798;10.022;2023-04-06T02:31:16;-0.20;14.10
5779;DHT22;2916;49.798;10.022;2023-04-06T02:33:43;-0.30;13.50
5779;DHT22;2916;49.798;10.022;2023-04-06T02:36:10;-0.30;14.00
5779;DHT22;2916;49.798;10.022;2023-04-06T02:38:37;-0.40;16.00
5779;DHT22;2916;49.798;10.022;2023-04-06T02:41:05;-0.40;18.10
5779;DHT22;2916;49.798;10.022;2023-04-06T02:43:32;-0.40;19.60
5779;DHT22;2916;49.798;10.022;2023-04-06T02:46:00;-0.40;20.90
5779;DHT22;2916;49.798;10.022;2023-04-06T02:48:29;-0.40;20.10
5779;DHT22;2916;49.798;10.022;2023-04-06T02:50:56;-0.40;20.20
5779;DHT22;2916;49.798;10.022;2023-04-06T02:53:23;-0.40;21.10
5779;DHT22;2916;49.798;10.022;2023-04-06T02:55:50;-0.30;23.60
5779;DHT22;2916;49.798;10.022;2023-04-06T02:58:18;-0.40;25.20
5779;DHT22;2916;49.798;10.022;2023-04-06T03:00:45;-0.40;26.40
5779;DHT22;2916;49.798;10.022;2023-04-06T03:03:12;-0.50;25.40
5779;DHT22;2916;49.798;10.022;2023-04-06T03:05:41;-0.50;25.00
5779;DHT22;2916;49.798;10.022;2023-04-06T03:08:08;-0.60;25.00
5779;DHT22;2916;49.798;10.022;2023-04-06T03:10:35;-0.70;26.20
5779;DHT22;2916;49.798;10.022;2023-04-06T03:13:03;-0.70;27.60
5779;DHT22;2916;49.798;10.022;2023-04-06T03:15:30;-0.70;27.90
5779;DHT22;2916;49.798;10.022;2023-04-06T03:17:58;-0.70;27.10
5779;DHT22;2916;49.798;10.022;2023-04-06T03:20:25;-0.80;27.10
5779;DHT22;2916;49.798;10.022;2023-04-06T03:22:54;-0.80;27.10
5779;DHT22;2916;49.798;10.022;2023-04-06T03:25:21;-0.70;28.20
5779;DHT22;2916;49.798;10.022;2023-04-06T03:27:48;-0.70;27.90
5779;DHT22;2916;49.798;10.022;2023-04-06T03:30:16;-0.90;27.10
5779;DHT22;2916;49.798;10.022;2023-04-06T03:32:44;-0.90;26.00
5779;DHT22;2916;49.798;10.022;2023-04-06T03:35:11;-0.90;27.00
5779;DHT22;2916;49.798;10.022;2023-04-06T03:37:38;-0.80;27.30
5779;DHT22;2916;49.798;10.022;2023-04-06T03:40:08;-0.80;27.40
5779;DHT22;2916;49.798;10.022;2023-04-06T03:42:35;-0.80;26.50
5779;DHT22;2916;49.798;10.022;2023-04-06T03:45:03;-0.90;26.60
5779;DHT22;2916;49.798;10.022;2023-04-06T03:47:31;-0.90;27.70
5779;DHT22;2916;49.798;10.022;2023-04-06T03:49:58;-0.80;28.10
5779;DHT22;2916;49.798;10.022;2023-04-06T03:52:26;-1.00;28.50
5779;DHT22;2916;49.798;10.022;2023-04-06T03:54:53;-1.00;30.50
5779;DHT22;2916;49.798;10.022;2023-04-06T03:57:22;-1.00;32.20
5779;DHT22;2916;49.798;10.022;2023-04-06T03:59:49;-1.10;31.10
5779;DHT22;2916;49.798;10.022;2023-04-06T04:02:17;-1.20;31.50
5779;DHT22;2916;49.798;10.022;2023-04-06T04:04:44;-1.20;30.50
5779;DHT22;2916;49.798;10.022;2023-04-06T04:07:11;-1.20;29.80
5779;DHT22;2916;49.798;10.022;2023-04-06T04:09:38;-1.20;28.90
5779;DHT22;2916;49.798;10.022;2023-04-06T04:12:06;-1.20;29.90
5779;DHT22;2916;49.798;10.022;2023-04-06T04:14:35;-1.20;29.20
5779;DHT22;2916;49.798;10.022;2023-04-06T04:17:02;-1.20;30.20
5779;DHT22;2916;49.798;10.022;2023-04-06T04:19:29;-1.20;30.00
5779;DHT22;2916;49.798;10.022;2023-04-06T04:21:57;-1.30;29.90
5779;DHT22;2916;49.798;10.022;2023-04-06T04:24:24;-1.40;29.10
5779;DHT22;2916;49.798;10.022;2023-04-06T04:26:51;-1.30;30.50
5779;DHT22;2916;49.798;10.022;2023-04-06T04:29:19;-1.30;33.00
5779;DHT22;2916;49.798;10.022;2023-04-06T04:31:49;-1.20;34.90
5779;DHT22;2916;49.798;10.022;2023-04-06T04:34:17;-1.20;40.00
5779;DHT22;2916;49.798;10.022;2023-04-06T04:36:46;-1.10;46.20
5779;DHT22;2916;49.798;10.022;2023-04-06T04:39:13;-1.00;47.40
5779;DHT22;2916;49.798;10.022;2023-04-06T04:41:41;-1.10;46.40
5779;DHT22;2916;49.798;10.022;2023-04-06T04:44:08;-1.20;42.10
5779;DHT22;2916;49.798;10.022;2023-04-06T04:46:35;-1.30;39.80
5779;DHT22;2916;49.798;10.022;2023-04-06T04:49:04;-1.20;41.30
5779;DHT22;2916;49.798;10.022;2023-04-06T04:51:31;-1.30;43.50
5779;DHT22;2916;49.798;10.022;2023-04-06T04:53:59;-1.20;49.40
5779;DHT22;2916;49.798;10.022;2023-04-06T04:56:26;-1.20;50.00
5779;DHT22;2916;49.798;10.022;2023-04-06T04:58:55;-1.20;50.70
5779;DHT22;2916;49.798;10.022;2023-04-06T05:01:22;-1.20;53.30
5779;DHT22;2916;49.798;10.022;2023-04-06T05:03:50;-1.20;56.10
5779;DHT22;2916;49.798;10.022;2023-04-06T05:06:19;-1.20;54.30
5779;DHT22;2916;49.798;10.022;2023-04-06T05:08:46;-1.20;55.40
5779;DHT22;2916;49.798;10.022;2023-04-06T05:11:13;-0.90;57.50
5779;DHT22;2916;49.798;10.022;2023-04-06T05:13:41;-0.60;56.70
5779;DHT22;2916;49.798;10.022;2023-04-06T05:16:08;-0.20;54.70
5779;DHT22;2916;49.798;10.022;2023-04-06T05:18:36;0.10;48.30
5779;DHT22;2916;49.798;10.022;2023-04-06T05:21:03;0.50;40.60
5779;DHT22;2916;49.798;10.022;2023-04-06T05:23:32;1.00;31.70
5779;DHT22;2916;49.798;10.022;2023-04-06T05:25:59;1.40;23.50
5779;DHT22;2916;49.798;10.022;2023-04-06T05:28:27;1.80;17.20
5779;DHT22;2916;49.798;10.022;2023-04-06T05:30:54;2.20;11.30
5779;DHT22;2916;49.798;10.022;2023-04-06T05:33:22;2.60;2.80
5779;DHT22;2916;49.798;10.022;2023-04-06T05:35:50;2.80;1.00
5779;DHT22;2916;49.798;10.022;2023-04-06T05:38:18;3.10;1.00
5779;DHT22;2916;49.798;10.022;2023-04-06T05:40:46;3.40;1.00
5779;DHT22;2916;49.798;10.022;2023-04-06T05:43:14;4.00;1.00
5779;DHT22;2916;49.798;10.022;2023-04-06T05:45:44;4.50;1.00
5779;DHT22;2916;49.798;10.022;2023-04-06T05:48:11;4.70;1.00
5779;DHT22;2916;49.798;10.022;2023-04-06T05:50:39;5.00;1.00
5779;DHT22;2916;49.798;10.022;2023-04-06T05:53:06;5.50;1.00
5779;DHT22;2916;49.798;10.022;2023-04-06T05:55:33;5.60;1.00
5779;DHT22;2916;49.798;10.022;2023-04-06T05:58:02;5.10;1.00
5779;DHT22;2916;49.798;10.022;2023-04-06T06:00:30;4.50;1.00
5779;DHT22;2916;49.798;10.022;2023-04-06T06:02:57;4.00;1.00
5779;DHT22;2916;49.798;10.022;2023-04-06T06:05:24;3.70;1.00
5779;DHT22;2916;49.798;10.022;2023-04-06T06:07:52;4.00;1.00
5779;DHT22;2916;49.798;10.022;2023-04-06T06:10:19;4.90;1.00
5779;DHT22;2916;49.798;10.022;2023-04-06T06:12:47;5.40;1.00
5779;DHT22;2916;49.798;10.022;2023-04-06T06:15:16;6.10;1.00
5779;DHT22;2916;49.798;10.022;2023-04-06T06:17:43;6.40;1.00
5779;DHT22;2916;49.798;10.022;2023-04-06T06:20:11;6.50;1.00
5779;DHT22;2916;49.798;10.022;2023-04-06T06:22:39;6.50;1.00
5779;DHT22;2916;49.798;10.022;2023-04-06T06:25:07;6.80;1.00
5779;DHT22;2916;49.798;10.022;2023-04-06T06:27:35;6.30;1.00
5779;DHT22;2916;49.798;10.022;2023-04-06T06:30:03;6.40;1.00
5779;DHT22;2916;49.798;10.022;2023-04-06T06:32:33;6.40;1.00
5779;DHT22;2916;49.798;10.022;2023-04-06T06:35:00;6.60;1.00
5779;DHT22;2916;49.798;10.022;2023-04-06T06:37:28;6.70;1.00
5779;DHT22;2916;49.798;10.022;2023-04-06T06:39:55;7.40;1.00
5779;DHT22;2916;49.798;10.022;2023-04-06T06:42:23;7.50;1.00
5779;DHT22;2916;49.798;10.022;2023-04-06T06:44:51;7.10;1.00
5779;DHT22;2916;49.798;10.022;2023-04-06T06:47:18;7.00;1.00
5779;DHT22;2916;49.798;10.022;2023-04-06T06:49:47;7.30;1.00
5779;DHT22;2916;49.798;10.022;2023-04-06T06:52:14;6.90;1.00
5779;DHT22;2916;49.798;10.022;2023-04-06T06:54:42;6.70;1.00
5779;DHT22;2916;49.798;10.022;2023-04-06T06:57:09;6.60;1.00
5779;DHT22;2916;49.798;10.022;2023-04-06T06:59:36;6.80;1.00
5779;DHT22;2916;49.798;10.022;2023-04-06T07:02:03;6.80;1.00
5779;DHT22;2916;49.798;10.022;2023-04-06T07:04:31;6.80;1.00
5779;DHT22;2916;49.798;10.022;2023-04-06T07:07:00;7.00;1.00
5779;DHT22;2916;49.798;10.022;2023-04-06T07:09:27;7.30;1.00
5779;DHT22;2916;49.798;10.022;2023-04-06T07:11:55;7.20;1.00
5779;DHT22;2916;49.798;10.022;2023-04-06T07:14:22;7.60;1.00
5779;DHT22;2916;49.798;10.022;2023-04-06T07:16:50;7.60;1.00
5779;DHT22;2916;49.798;10.022;2023-04-06T07:19:17;7.40;1.00
5779;DHT22;2916;49.798;10.022;2023-04-06T07:21:44;7.60;1.00
5779;DHT22;2916;49.798;10.022;2023-04-06T07:24:13;7.70;1.00
5779;DHT22;2916;49.798;10.022;2023-04-06T07:26:42;7.80;1.00
5779;DHT22;2916;49.798;10.022;2023-04-06T07:29:09;7.90;1.00
5779;DHT22;2916;49.798;10.022;2023-04-06T07:31:36;8.30;1.00
5779;DHT22;2916;49.798;10.022;2023-04-06T07:34:03;8.10;1.00
5779;DHT22;2916;49.798;10.022;2023-04-06T07:36:31;7.70;1.00
5779;DHT22;2916;49.798;10.022;2023-04-06T07:38:58;7.90;1.00
5779;DHT22;2916;49.798;10.022;2023-04-06T07:41:27;8.10;1.00
5779;DHT22;2916;49.798;10.022;2023-04-06T07:43:54;8.10;1.00
5779;DHT22;2916;49.798;10.022;2023-04-06T07:46:22;8.10;1.00
5779;DHT22;2916;49.798;10.022;2023-04-06T07:48:49;8.20;1.00
5779;DHT22;2916;49.798;10.022;2023-04-06T07:51:17;8.50;1.00
5779;DHT22;2916;49.798;10.022;2023-04-06T07:53:44;8.50;1.00
5779;DHT22;2916;49.798;10.022;2023-04-06T07:56:11;7.90;1.00
5779;DHT22;2916;49.798;10.022;2023-04-06T07:58:42;8.40;1.00
5779;DHT22;2916;49.798;10.022;2023-04-06T08:01:09;8.60;1.00
5779;DHT22;2916;49.798;10.022;2023-04-06T08:03:37;9.10;1.00
5779;DHT22;2916;49.798;10.022;2023-04-06T08:06:04;9.60;1.00
5779;DHT22;2916;49.798;10.022;2023-04-06T08:08:32;9.80;1.00
5779;DHT22;2916;49.798;10.022;2023-04-06T08:10:59;9.30;1.00
5779;DHT22;2916;49.798;10.022;2023-04-06T08:13:28;9.90;1.00
5779;DHT22;2916;49.798;10.022;2023-04-06T08:15:58;9.60;1.00
5779;DHT22;2916;49.798;10.022;2023-04-06T08:18:26;10.20;1.00
5779;DHT22;2916;49.798;10.022;2023-04-06T08:20:54;10.00;1.00
5779;DHT22;2916;49.798;10.022;2023-04-06T08:23:22;10.20;1.00
5779;DHT22;2916;49.798;10.022;2023-04-06T08:25:49;10.70;1.00
5779;DHT22;2916;49.798;10.022;2023-04-06T08:28:19;10.60;1.00
5779;DHT22;2916;49.798;10.022;2023-04-06T08:30:47;11.30;1.00
5779;DHT22;2916;49.798;10.022;2023-04-06T08:33:15;10.70;1.00
5779;DHT22;2916;49.798;10.022;2023-04-06T08:35:43;11.50;1.00
5779;DHT22;2916;49.798;10.022;2023-04-06T08:38:10;12.00;1.00
5779;DHT22;2916;49.798;10.022;2023-04-06T08:40:38;12.50;1.00
5779;DHT22;2916;49.798;10.022;2023-04-06T08:43:09;11.20;1.00
5779;DHT22;2916;49.798;10.022;2023-04-06T08:45:40;11.60;1.00
5779;DHT22;2916;49.798;10.022;2023-04-06T08:48:08;12.10;1.00
5779;DHT22;2916;49.798;10.022;2023-04-06T08:50:38;11.40;1.00
5779;DHT22;2916;49.798;10.022;2023-04-06T08:53:07;11.20;1.00
5779;DHT22;2916;49.798;10.022;2023-04-06T08:55:35;10.90;1.00
5779;DHT22;2916;49.798;10.022;2023-04-06T08:58:05;10.60;1.00
5779;DHT22;2916;49.798;10.022;2023-04-06T09:00:37;11.30;1.00
5779;DHT22;2916;49.798;10.022;2023-04-06T09:03:06;12.30;1.00
5779;DHT22;2916;49.798;10.022;2023-04-06T09:05:36;12.60;1.00
5779;DHT22;2916;49.798;10.022;2023-04-06T09:08:05;13.30;1.00
5779;DHT22;2916;49.798;10.022;2023-04-06T09:10:32;13.80;1.00
5779;DHT22;2916;49.798;10.022;2023-04-06T09:13:04;13.70;1.00
5779;DHT22;2916;49.798;10.022;2023-04-06T09:15:33;12.70;1.00
5779;DHT22;2916;49.798;10.022;2023-04-06T09:18:01;12.40;1.00
5779;DHT22;2916;49.798;10.022;2023-04-06T09:20:29;12.60;1.00
5779;DHT22;2916;49.798;10.022;2023-04-06T09:22:57;12.40;1.00
5779;DHT22;2916;49.798;10.022;2023-04-06T09:25:25;12.10;1.00
5779;DHT22;2916;49.798;10.022;2023-04-06T09:27:59;12.40;1.00
5779;DHT22;2916;49.798;10.022;2023-04-06T09:30:28;13.00;1.00
5779;DHT22;2916;49.798;10.022;2023-04-06T09:32:57;13.80;1.00
5779;DHT22;2916;49.798;10.022;2023-04-06T09:35:25;13.50;1.00
5779;DHT22;2916;49.798;10.022;2023-04-06T09:37:56;13.60;1.00
5779;DHT22;2916;49.798;10.022;2023-04-06T09:40:24;13.40;1.00
5779;DHT22;2916;49.798;10.022;2023-04-06T09:42:51;14.30;1.00
5779;DHT22;2916;49.798;10.022;2023-04-06T09:45:20;13.50;1.00
5779;DHT22;2916;49.798;10.022;2023-04-06T09:47:48;13.80;1.00
5779;DHT22;2916;49.798;10.022;2023-04-06T09:50:19;14.00;1.00
5779;DHT22;2916;49.798;10.022;2023-04-06T09:52:50;13.90;1.00
5779;DHT22;2916;49.798;10.022;2023-04-06T09:55:23;14.00;1.00
5779;DHT22;2916;49.798;10.022;2023-04-06T09:58:04;13.60;1.00
5779;DHT22;2916;49.798;10.022;2023-04-06T10:00:47;13.90;1.00
5779;DHT22;2916;49.798;10.022;2023-04-06T10:03:23;13.50;1.00
5779;DHT22;2916;49.798;10.022;2023-04-06T10:06:06;13.90;1.00
5779;DHT22;2916;49.798;10.022;2023-04-06T10:08:39;13.60;1.00
5779;DHT22;2916;49.798;10.022;2023-04-06T10:11:09;13.30;1.00
5779;DHT22;2916;49.798;10.022;2023-04-06T10:13:37;12.80;1.00
5779;DHT22;2916;49.798;10.022;2023-04-06T10:16:05;12.80;1.00
5779;DHT22;2916;49.798;10.022;2023-04-06T10:18:34;13.50;1.00
5779;DHT22;2916;49.798;10.022;2023-04-06T10:21:06;14.10;1.00
5779;DHT22;2916;49.798;10.022;2023-04-06T10:23:39;13.60;1.00
5779;DHT22;2916;49.798;10.022;2023-04-06T10:26:15;13.80;1.00
5779;DHT22;2916;49.798;10.022;2023-04-06T10:28:45;13.90;1.00
5779;DHT22;2916;49.798;10.022;2023-04-06T10:31:15;13.60;1.00
5779;DHT22;2916;49.798;10.022;2023-04-06T10:33:54;13.50;1.00
5779;DHT22;2916;49.798;10.022;2023-04-06T10:36:23;13.60;1.00
5779;DHT22;2916;49.798;10.022;2023-04-06T10:38:56;13.90;1.00
5779;DHT22;2916;49.798;10.022;2023-04-06T10:41:33;14.50;1.00
5779;DHT22;2916;49.798;10.022;2023-04-06T10:44:02;14.20;1.00
5779;DHT22;2916;49.798;10.022;2023-04-06T10:46:31;14.40;1.00
5779;DHT22;2916;49.798;10.022;2023-04-06T10:49:09;14.10;1.00
5779;DHT22;2916;49.798;10.022;2023-04-06T10:51:38;14.10;1.00
5779;DHT22;2916;49.798;10.022;2023-04-06T10:54:06;14.30;1.00
5779;DHT22;2916;49.798;10.022;2023-04-06T10:56:37;14.90;1.00
5779;DHT22;2916;49.798;10.022;2023-04-06T10:59:06;15.10;1.00
5779;DHT22;2916;49.798;10.022;2023-04-06T11:01:34;15.40;1.00
5779;DHT22;2916;49.798;10.022;2023-04-06T11:04:01;15.20;1.00
5779;DHT22;2916;49.798;10.022;2023-04-06T11:06:30;15.00;1.00
5779;DHT22;2916;49.798;10.022;2023-04-06T11:08:58;15.20;1.00
5779;DHT22;2916;49.798;10.022;2023-04-06T11:11:26;15.30;1.00
5779;DHT22;2916;49.798;10.022;2023-04-06T11:13:57;14.50;1.00
5779;DHT22;2916;49.798;10.022;2023-04-06T11:16:27;15.20;1.00
5779;DHT22;2916;49.798;10.022;2023-04-06T11:18:56;15.50;1.00
5779;DHT22;2916;49.798;10.022;2023-04-06T11:21:35;15.30;1.00
5779;DHT22;2916;49.798;10.022;2023-04-06T11:24:09;14.50;1.00
5779;DHT22;2916;49.798;10.022;2023-04-06T11:26:38;15.40;1.00
5779;DHT22;2916;49.798;10.022;2023-04-06T11:29:08;14.50;1.00
5779;DHT22;2916;49.798;10.022;2023-04-06T11:31:46;13.80;1.00
5779;DHT22;2916;49.798;10.022;2023-04-06T11:34:17;14.10;1.00
5779;DHT22;2916;49.798;10.022;2023-04-06T11:36:47;14.40;1.00
5779;DHT22;2916;49.798;10.022;2023-04-06T11:39:19;14.80;1.00
5779;DHT22;2916;49.798;10.022;2023-04-06T11:41:49;15.10;1.00
5779;DHT22;2916;49.798;10.022;2023-04-06T11:44:29;14.10;1.00
5779;DHT22;2916;49.798;10.022;2023-04-06T11:47:00;14.70;1.00
5779;DHT22;2916;49.798;10.022;2023-04-06T11:49:28;14.80;1.00
5779;DHT22;2916;49.798;10.022;2023-04-06T11:51:56;14.60;1.00
5779;DHT22;2916;49.798;10.022;2023-04-06T11:54:32;15.30;1.00
5779;DHT22;2916;49.798;10.022;2023-04-06T11:57:02;15.60;1.00
5779;DHT22;2916;49.798;10.022;2023-04-06T11:59:32;15.40;1.00
5779;DHT22;2916;49.798;10.022;2023-04-06T12:02:00;15.30;1.00
5779;DHT22;2916;49.798;10.022;2023-04-06T12:04:28;15.40;1.00
5779;DHT22;2916;49.798;10.022;2023-04-06T12:06:56;15.70;1.00
5779;DHT22;2916;49.798;10.022;2023-04-06T12:09:23;15.50;1.00
5779;DHT22;2916;49.798;10.022;2023-04-06T12:11:51;15.60;1.00
5779;DHT22;2916;49.798;10.022;2023-04-06T12:14:18;15.80;1.00
5779;DHT22;2916;49.798;10.022;2023-04-06T12:16:47;15.60;1.00
5779;DHT22;2916;49.798;10.022;2023-04-06T12:19:15;15.40;1.00
5779;DHT22;2916;49.798;10.022;2023-04-06T12:21:42;15.40;1.00
5779;DHT22;2916;49.798;10.022;2023-04-06T12:24:09;15.10;1.00
5779;DHT22;2916;49.798;10.022;2023-04-06T12:26:37;14.90;1.00
5779;DHT22;2916;49.798;10.022;2023-04-06T12:29:04;15.00;1.00
5779;DHT22;2916;49.798;10.022;2023-04-06T12:31:34;15.30;1.00
5779;DHT22;2916;49.798;10.022;2023-04-06T12:34:03;15.10;1.00
5779;DHT22;2916;49.798;10.022;2023-04-06T12:36:31;15.70;1.00
5779;DHT22;2916;49.798;10.022;2023-04-06T12:38:58;15.70;1.00
5779;DHT22;2916;49.798;10.022;2023-04-06T12:41:27;15.50;1.00
5779;DHT22;2916;49.798;10.022;2023-04-06T12:43:54;15.70;1.00
5779;DHT22;2916;49.798;10.022;2023-04-06T12:46:22;16.00;1.00
5779;DHT22;2916;49.798;10.022;2023-04-06T12:48:51;15.20;1.00
5779;DHT22;2916;49.798;10.022;2023-04-06T12:51:23;15.00;1.00
5779;DHT22;2916;49.798;10.022;2023-04-06T12:53:50;15.00;1.00
5779;DHT22;2916;49.798;10.022;2023-04-06T12:56:18;15.30;1.00
5779;DHT22;2916;49.798;10.022;2023-04-06T12:58:46;15.30;1.00
5779;DHT22;2916;49.798;10.022;2023-04-06T13:01:14;15.10;1.00
5779;DHT22;2916;49.798;10.022;2023-04-06T13:03:41;14.70;1.00
5779;DHT22;2916;49.798;10.022;2023-04-06T13:06:10;15.30;1.00
5779;DHT22;2916;49.798;10.022;2023-04-06T13:08:40;15.50;1.00
5779;DHT22;2916;49.798;10.022;2023-04-06T13:11:07;15.60;1.00
5779;DHT22;2916;49.798;10.022;2023-04-06T13:13:35;15.70;1.00
5779;DHT22;2916;49.798;10.022;2023-04-06T13:16:04;15.80;1.00
5779;DHT22;2916;49.798;10.022;2023-04-06T13:18:34;15.80;1.00
5779;DHT22;2916;49.798;10.022;2023-04-06T13:21:04;15.60;1.00
5779;DHT22;2916;49.798;10.022;2023-04-06T13:23:32;14.60;1.00
5779;DHT22;2916;49.798;10.022;2023-04-06T13:26:01;15.30;1.00
5779;DHT22;2916;49.798;10.022;2023-04-06T13:28:30;15.70;1.00
5779;DHT22;2916;49.798;10.022;2023-04-06T13:30:59;15.50;1.00
5779;DHT22;2916;49.798;10.022;2023-04-06T13:33:27;14.90;1.00
5779;DHT22;2916;49.798;10.022;2023-04-06T13:35:55;14.70;1.00
5779;DHT22;2916;49.798;10.022;2023-04-06T13:38:23;14.50;1.00
5779;DHT22;2916;49.798;10.022;2023-04-06T13:40:51;14.20;1.00
5779;DHT22;2916;49.798;10.022;2023-04-06T13:43:20;13.90;1.00
5779;DHT22;2916;49.798;10.022;2023-04-06T13:45:49;14.00;1.00
5779;DHT22;2916;49.798;10.022;2023-04-06T13:48:17;14.40;1.00
5779;DHT22;2916;49.798;10.022;2023-04-06T13:50:44;14.30;1.00
5779;DHT22;2916;49.798;10.022;2023-04-06T13:53:12;14.20;1.00
5779;DHT22;2916;49.798;10.022;2023-04-06T13:55:40;14.10;1.00
5779;DHT22;2916;49.798;10.022;2023-04-06T13:58:07;14.10;1.00
5779;DHT22;2916;49.798;10.022;2023-04-06T14:00:36;14.50;1.00
5779;DHT22;2916;49.798;10.022;2023-04-06T14:03:03;15.30;1.00
5779;DHT22;2916;49.798;10.022;2023-04-06T14:05:31;15.20;1.00
5779;DHT22;2916;49.798;10.022;2023-04-06T14:07:58;15.00;1.00
5779;DHT22;2916;49.798;10.022;2023-04-06T14:10:26;14.80;1.00
5779;DHT22;2916;49.798;10.022;2023-04-06T14:12:53;14.90;1.00
5779;DHT22;2916;49.798;10.022;2023-04-06T14:15:21;15.00;1.00
5779;DHT22;2916;49.798;10.022;2023-04-06T14:17:50;15.10;1.00
5779;DHT22;2916;49.798;10.022;2023-04-06T14:20:18;15.00;1.00
5779;DHT22;2916;49.798;10.022;2023-04-06T14:22:46;14.60;1.00
5779;DHT22;2916;49.798;10.022;2023-04-06T14:25:15;14.40;1.00
5779;DHT22;2916;49.798;10.022;2023-04-06T14:27:42;14.50;1.00
5779;DHT22;2916;49.798;10.022;2023-04-06T14:30:10;14.80;1.00
5779;DHT22;2916;49.798;10.022;2023-04-06T14:32:38;15.00;1.00
5779;DHT22;2916;49.798;10.022;2023-04-06T14:35:08;15.00;1.00
5779;DHT22;2916;49.798;10.022;2023-04-06T14:37:36;15.20;1.00
5779;DHT22;2916;49.798;10.022;2023-04-06T14:40:04;15.00;1.00
5779;DHT22;2916;49.798;10.022;2023-04-06T14:42:32;14.80;1.00
5779;DHT22;2916;49.798;10.022;2023-04-06T14:44:59;15.00;1.00
5779;DHT22;2916;49.798;10.022;2023-04-06T14:47:26;14.60;1.00
5779;DHT22;2916;49.798;10.022;2023-04-06T14:49:53;14.30;1.00
5779;DHT22;2916;49.798;10.022;2023-04-06T14:52:22;13.90;1.00
5779;DHT22;2916;49.798;10.022;2023-04-06T14:54:49;14.00;1.00
5779;DHT22;2916;49.798;10.022;2023-04-06T14:57:16;13.60;1.00
5779;DHT22;2916;49.798;10.022;2023-04-06T14:59:43;13.60;1.00
5779;DHT22;2916;49.798;10.022;2023-04-06T15:02:10;13.60;1.00
5779;DHT22;2916;49.798;10.022;2023-04-06T15:04:38;13.50;1.00
5779;DHT22;2916;49.798;10.022;2023-04-06T15:07:06;13.90;1.00
5779;DHT22;2916;49.798;10.022;2023-04-06T15:09:35;14.10;1.00
5779;DHT22;2916;49.798;10.022;2023-04-06T15:12:03;13.80;1.00
5779;DHT22;2916;49.798;10.022;2023-04-06T15:14:30;13.70;1.00
5779;DHT22;2916;49.798;10.022;2023-04-06T15:16:58;13.70;1.00
5779;DHT22;2916;49.798;10.022;2023-04-06T15:19:25;13.90;1.00
5779;DHT22;2916;49.798;10.022;2023-04-06T15:21:52;13.80;1.00
5779;DHT22;2916;49.798;10.022;2023-04-06T15:24:20;13.80;1.00
5779;DHT22;2916;49.798;10.022;2023-04-06T15:26:48;14.10;1.00
5779;DHT22;2916;49.798;10.022;2023-04-06T15:29:16;14.20;1.00
5779;DHT22;2916;49.798;10.022;2023-04-06T15:31:43;14.10;1.00
5779;DHT22;2916;49.798;10.022;2023-04-06T15:34:10;13.90;1.00
5779;DHT22;2916;49.798;10.022;2023-04-06T15:36:37;13.90;1.00
5779;DHT22;2916;49.798;10.022;2023-04-06T15:39:04;13.70;1.00
5779;DHT22;2916;49.798;10.022;2023-04-06T15:41:34;13.70;1.00
5779;DHT22;2916;49.798;10.022;2023-04-06T15:44:03;13.70;1.00
5779;DHT22;2916;49.798;10.022;2023-04-06T15:46:30;13.40;1.00
5779;DHT22;2916;49.798;10.022;2023-04-06T15:48:57;13.30;1.00
5779;DHT22;2916;49.798;10.022;2023-04-06T15:51:26;13.30;1.00
5779;DHT22;2916;49.798;10.022;2023-04-06T15:53:54;13.20;1.00
5779;DHT22;2916;49.798;10.022;2023-04-06T15:56:23;13.30;1.00
5779;DHT22;2916;49.798;10.022;2023-04-06T15:58:50;13.20;1.00
5779;DHT22;2916;49.798;10.022;2023-04-06T16:01:19;13.30;1.00
5779;DHT22;2916;49.798;10.022;2023-04-06T16:03:46;13.00;1.00
5779;DHT22;2916;49.798;10.022;2023-04-06T16:06:14;13.00;1.00
5779;DHT22;2916;49.798;10.022;2023-04-06T16:08:41;13.20;1.00
5779;DHT22;2916;49.798;10.022;2023-04-06T16:11:08;13.20;1.00